Time;durP1;ratioP1;P1;durP2;ratioP2;P2;SDS_P1;SDS_P2;PMS_P1;PMS_P2;Temp;Humidity;BMP_temperature;BMP_pressure;BME280_temperature;BME280_humidity;BME280_pressure;Samples;Min_cycle;Max_cycle;Signal;HPM_P1;HPM_P2
2021/12/04 00:00:47;;;;;;;72.77;14.07;;;;;;;;;;4935904;29;20448;-96
2021/12/04 00:03:18;;;;;;;69.27;13.10;;;;;;;;;;4931603;29;20496;-96
2021/12/04 00:05:51;;;;;;;71.23;13.20;;;;;;;;;;4937944;29;20481;-96
2021/12/04 00:08:28;;;;;;;71.50;12.67;;;;;;;;;;4934663;29;20481;-96
2021/12/04 00:11:11;;;;;;;75.77;13.13;;;;;;;;;;4932968;29;20483;-95
2021/12/04 00:13:37;;;;;;;73.97;12.63;;;;;;;;;;4932954;29;20444;-96
2021/12/04 00:16:04;;;;;;;73.97;13.10;;;;;;;;;;4931936;29;20464;-96
2021/12/04 00:18:31;;;;;;;73.97;14.37;;;;;;;;;;4931683;29;20457;-96
2021/12/04 00:20:57;;;;;;;72.40;14.23;;;;;;;;;;4931860;29;20853;-96
2021/12/04 00:23:25;;;;;;;70.57;13.17;;;;;;;;;;4931688;29;20492;-96
2021/12/04 00:25:52;;;;;;;70.10;12.17;;;;;;;;;;4932266;29;20822;-96
2021/12/04 00:28:18;;;;;;;69.17;12.50;;;;;;;;;;4932098;29;20464;-96
2021/12/04 00:30:46;;;;;;;73.30;13.40;;;;;;;;;;4931447;29;20465;-94
2021/12/04 00:33:16;;;;;;;77.70;14.20;;;;;;;;;;4931466;29;20456;-95
2021/12/04 00:35:46;;;;;;;80.50;13.90;;;;;;;;;;4931970;29;20510;-95
2021/12/04 00:49:24;;;;;;;73.07;14.10;;;;;;;;;;4935287;29;20442;-95
2021/12/04 00:51:53;;;;;;;70.50;13.40;;;;;;;;;;4935546;29;20456;-95
2021/12/04 00:54:21;;;;;;;71.67;13.40;;;;;;;;;;4936116;29;20515;-95
2021/12/04 00:56:49;;;;;;;75.17;12.77;;;;;;;;;;4935823;29;20453;-95
2021/12/04 00:59:17;;;;;;;70.83;13.00;;;;;;;;;;4935832;29;20452;-95
2021/12/04 01:01:44;;;;;;;70.73;13.40;;;;;;;;;;4935486;29;20491;-95
2021/12/04 01:04:11;;;;;;;69.53;12.43;;;;;;;;;;4935634;29;20707;-95
2021/12/04 01:06:39;;;;;;;71.97;13.10;;;;;;;;;;4935799;29;20441;-96
2021/12/04 01:09:06;;;;;;;75.20;12.67;;;;;;;;;;4935223;29;20457;-95
2021/12/04 01:11:33;;;;;;;69.77;12.97;;;;;;;;;;4935439;29;20482;-96
2021/12/04 01:14:01;;;;;;;68.40;11.90;;;;;;;;;;4935622;29;20495;-94
2021/12/04 01:16:27;;;;;;;72.20;12.10;;;;;;;;;;4934804;29;20482;-96
2021/12/04 01:19:04;;;;;;;73.67;13.27;;;;;;;;;;4936132;29;20512;-96
2021/12/04 01:21:31;;;;;;;76.90;13.70;;;;;;;;;;4934691;29;20478;-96
2021/12/04 01:23:57;;;;;;;72.73;13.60;;;;;;;;;;4934911;29;20496;-96
2021/12/04 01:26:24;;;;;;;77.50;16.63;;;;;;;;;;4934570;29;20992;-96
2021/12/04 01:28:51;;;;;;;71.13;13.30;;;;;;;;;;4934887;29;20459;-96
2021/12/04 01:31:19;;;;;;;69.13;11.90;;;;;;;;;;4934499;29;20474;-96
2021/12/04 01:33:46;;;;;;;69.17;11.60;;;;;;;;;;4934549;29;20455;-96
2021/12/04 01:36:12;;;;;;;68.93;12.40;;;;;;;;;;4934303;29;20456;-96
2021/12/04 01:38:39;;;;;;;70.60;12.73;;;;;;;;;;4936056;29;20455;-96
2021/12/04 01:41:06;;;;;;;69.47;12.57;;;;;;;;;;4932712;29;20472;-95
2021/12/04 01:43:32;;;;;;;69.70;12.10;;;;;;;;;;4936175;29;20520;-96
2021/12/04 01:45:59;;;;;;;71.30;12.90;;;;;;;;;;4934289;29;20484;-96
2021/12/04 01:48:27;;;;;;;70.60;12.90;;;;;;;;;;4934337;29;20452;-96
2021/12/04 01:50:55;;;;;;;70.10;12.80;;;;;;;;;;4933472;29;20463;-95
2021/12/04 01:53:21;;;;;;;71.23;12.77;;;;;;;;;;4934110;29;20447;-96
2021/12/04 01:55:51;;;;;;;69.40;12.40;;;;;;;;;;4934612;29;20460;-96
2021/12/04 01:58:17;;;;;;;72.87;11.43;;;;;;;;;;4934528;29;20448;-96
2021/12/04 02:00:44;;;;;;;73.63;12.40;;;;;;;;;;4933707;29;20532;-95
2021/12/04 02:03:13;;;;;;;68.67;11.90;;;;;;;;;;4933419;29;20487;-95
2021/12/04 02:05:41;;;;;;;70.17;12.33;;;;;;;;;;4933262;29;20448;-96
2021/12/04 02:08:09;;;;;;;69.30;11.80;;;;;;;;;;4933470;29;20459;-95
2021/12/04 02:10:36;;;;;;;67.27;11.83;;;;;;;;;;4933079;29;20963;-96
2021/12/04 02:13:02;;;;;;;69.73;11.87;;;;;;;;;;4933395;29;20453;-96
2021/12/04 02:15:29;;;;;;;75.30;13.47;;;;;;;;;;4933202;29;20539;-95
2021/12/04 02:17:56;;;;;;;70.50;12.57;;;;;;;;;;4932653;29;20458;-96
2021/12/04 02:20:27;;;;;;;70.60;12.70;;;;;;;;;;4932656;29;20458;-96
2021/12/04 02:22:54;;;;;;;72.30;12.00;;;;;;;;;;4932401;29;20533;-96
2021/12/04 02:25:20;;;;;;;71.87;12.77;;;;;;;;;;4933088;29;20481;-96
2021/12/04 02:27:47;;;;;;;70.20;12.17;;;;;;;;;;4933972;29;20458;-96
2021/12/04 02:30:15;;;;;;;70.70;12.47;;;;;;;;;;4933002;29;20511;-95
2021/12/04 02:32:42;;;;;;;74.87;15.30;;;;;;;;;;4934367;29;20461;-96
2021/12/04 02:35:09;;;;;;;72.80;15.07;;;;;;;;;;4934247;29;20646;-96
2021/12/04 02:37:38;;;;;;;76.00;14.80;;;;;;;;;;4932408;29;20468;-96
2021/12/04 02:40:30;;;;;;;72.03;13.17;;;;;;;;;;4938413;29;20444;-96
2021/12/04 02:42:59;;;;;;;69.60;12.80;;;;;;;;;;4944492;29;20516;-96
2021/12/04 02:45:26;;;;;;;70.27;11.80;;;;;;;;;;4945629;29;20491;-96
2021/12/04 02:47:53;;;;;;;69.50;12.23;;;;;;;;;;4943970;29;20435;-96
2021/12/04 02:50:20;;;;;;;75.93;12.83;;;;;;;;;;4948623;29;20428;-96
2021/12/04 02:52:48;;;;;;;70.47;12.67;;;;;;;;;;4946112;29;20482;-96
2021/12/04 02:55:16;;;;;;;70.83;11.57;;;;;;;;;;4934907;29;20444;-96
2021/12/04 02:57:44;;;;;;;69.47;12.40;;;;;;;;;;4933693;29;20467;-96
2021/12/04 03:00:14;;;;;;;71.23;13.40;;;;;;;;;;4934881;29;20452;-96
2021/12/04 03:02:41;;;;;;;72.07;13.40;;;;;;;;;;4934874;29;20459;-96
2021/12/04 03:05:09;;;;;;;75.47;14.63;;;;;;;;;;4938772;29;20488;-96
2021/12/04 03:07:36;;;;;;;71.03;12.90;;;;;;;;;;4937914;29;20451;-96
2021/12/04 03:10:06;;;;;;;72.40;13.50;;;;;;;;;;4939408;29;20485;-96
2021/12/04 03:12:36;;;;;;;70.50;13.33;;;;;;;;;;4943579;29;21227;-96
2021/12/04 03:15:10;;;;;;;69.80;12.90;;;;;;;;;;4938839;29;20456;-96
2021/12/04 03:17:37;;;;;;;70.30;13.53;;;;;;;;;;4933637;29;20436;-96
2021/12/04 03:23:13;;;;;;;70.57;13.47;;;;;;;;;;4944697;29;20447;-96
2021/12/04 03:25:47;;;;;;;69.70;13.50;;;;;;;;;;4928744;29;20448;-96
2021/12/04 03:28:21;;;;;;;69.57;12.27;;;;;;;;;;4948092;29;20482;-96
2021/12/04 03:47:24;;;;;;;69.30;13.20;;;;;;;;;;5855466;23;20484;-96
2021/12/04 03:49:52;;;;;;;73.10;13.33;;;;;;;;;;4931732;29;20447;-96
2021/12/04 03:52:22;;;;;;;69.53;13.27;;;;;;;;;;4934782;29;20454;-96
2021/12/04 03:54:49;;;;;;;71.90;13.50;;;;;;;;;;4920346;29;20445;-96
2021/12/04 03:57:16;;;;;;;70.07;13.30;;;;;;;;;;4930907;29;20467;-96
2021/12/04 04:02:36;;;;;;;72.13;13.70;;;;;;;;;;5340787;23;20744;-96
2021/12/04 04:07:46;;;;;;;72.07;13.50;;;;;;;;;;5377012;23;20458;-96
2021/12/04 04:20:52;;;;;;;69.97;12.90;;;;;;;;;;5109076;23;20503;-96
2021/12/04 04:25:59;;;;;;;68.80;12.53;;;;;;;;;;4943283;29;20477;-96
2021/12/04 04:58:27;;;;;;;85.57;17.90;;;;;;;;;;4925537;29;21619;-96
2021/12/04 05:01:29;;;;;;;71.77;13.47;;;;;;;;;;4925504;29;20426;-96
2021/12/04 05:26:13;;;;;;;71.23;12.50;;;;;;;;;;5364468;23;20488;-96
2021/12/04 05:31:45;;;;;;;71.73;14.13;;;;;;;;;;5838296;23;20488;-96
2021/12/04 05:57:35;;;;;;;75.90;14.00;;;;;;;;;;5020546;23;20524;-95
2021/12/04 06:05:26;;;;;;;76.57;14.70;;;;;;;;;;1809656;23;20488;-95
2021/12/04 06:10:38;;;;;;;70.70;12.93;;;;;;;;;;4935665;29;20436;-96
2021/12/04 06:13:07;;;;;;;72.57;13.90;;;;;;;;;;5100140;23;20485;-96
2021/12/04 06:18:27;;;;;;;76.87;16.37;;;;;;;;;;5067643;23;20495;-96
2021/12/04 06:23:38;;;;;;;71.53;13.13;;;;;;;;;;4915888;29;20497;-94
2021/12/04 06:26:06;;;;;;;76.10;15.13;;;;;;;;;;4919863;29;20446;-96
2021/12/04 06:28:34;;;;;;;71.53;14.10;;;;;;;;;;4918013;29;20488;-96
2021/12/04 06:31:01;;;;;;;75.20;15.17;;;;;;;;;;4923615;29;20456;-95
2021/12/04 06:33:29;;;;;;;76.50;15.23;;;;;;;;;;4918482;29;20464;-95
2021/12/04 06:35:56;;;;;;;77.53;16.83;;;;;;;;;;4996168;23;21102;-96
2021/12/04 06:38:23;;;;;;;77.63;14.90;;;;;;;;;;4916228;29;20544;-95
2021/12/04 06:40:49;;;;;;;75.63;14.73;;;;;;;;;;4914986;29;20969;-94
2021/12/04 06:43:17;;;;;;;79.47;16.10;;;;;;;;;;4920490;29;20480;-96
2021/12/04 06:45:53;;;;;;;76.13;14.80;;;;;;;;;;4916200;29;20488;-96
2021/12/04 06:48:22;;;;;;;73.90;15.50;;;;;;;;;;4913077;29;20447;-96
2021/12/04 06:50:52;;;;;;;82.00;16.67;;;;;;;;;;4917416;29;20456;-95
2021/12/04 06:53:25;;;;;;;75.90;15.63;;;;;;;;;;4908388;29;20550;-96
2021/12/04 06:55:54;;;;;;;80.00;15.67;;;;;;;;;;4916116;29;20420;-96
2021/12/04 06:58:23;;;;;;;76.53;15.33;;;;;;;;;;4915482;29;20524;-96
2021/12/04 07:00:52;;;;;;;75.60;14.77;;;;;;;;;;4916876;29;20512;-95
2021/12/04 07:03:19;;;;;;;74.77;15.63;;;;;;;;;;4914261;29;20449;-95
2021/12/04 07:05:45;;;;;;;80.90;16.17;;;;;;;;;;4913377;29;20504;-96
2021/12/04 07:08:12;;;;;;;77.03;15.17;;;;;;;;;;4911797;29;20448;-96
2021/12/04 07:10:38;;;;;;;73.60;15.60;;;;;;;;;;4912363;29;20969;-96
2021/12/04 07:13:05;;;;;;;74.40;15.03;;;;;;;;;;4912120;29;20441;-96
2021/12/04 07:15:32;;;;;;;76.67;15.63;;;;;;;;;;4911782;29;20453;-96
2021/12/04 07:18:00;;;;;;;73.57;15.13;;;;;;;;;;4912765;29;20462;-96
2021/12/04 07:20:27;;;;;;;73.60;15.40;;;;;;;;;;4911841;29;20473;-96
2021/12/04 07:22:54;;;;;;;74.17;15.90;;;;;;;;;;4914104;29;20460;-96
2021/12/04 07:25:20;;;;;;;77.47;14.20;;;;;;;;;;4914261;29;21062;-96
2021/12/04 07:27:50;;;;;;;75.60;16.47;;;;;;;;;;4912962;29;20448;-95
2021/12/04 07:30:17;;;;;;;81.77;18.20;;;;;;;;;;4912865;29;21569;-96
2021/12/04 07:32:44;;;;;;;79.00;16.40;;;;;;;;;;4913572;29;20457;-96
2021/12/04 07:35:12;;;;;;;73.57;15.70;;;;;;;;;;4913100;29;20485;-96
2021/12/04 07:37:39;;;;;;;78.60;15.50;;;;;;;;;;4914119;29;20444;-96
2021/12/04 07:40:06;;;;;;;81.73;14.70;;;;;;;;;;4913712;29;20448;-96
2021/12/04 07:42:33;;;;;;;77.07;15.00;;;;;;;;;;4913238;29;21186;-96
2021/12/04 07:44:59;;;;;;;73.13;15.00;;;;;;;;;;4916942;29;20496;-96
2021/12/04 07:47:26;;;;;;;78.00;17.03;;;;;;;;;;4913388;29;20488;-96
2021/12/04 07:49:53;;;;;;;84.00;19.67;;;;;;;;;;4913330;29;20465;-96
2021/12/04 07:52:21;;;;;;;78.60;17.10;;;;;;;;;;4913311;29;20464;-96
2021/12/04 07:54:48;;;;;;;82.57;17.83;;;;;;;;;;4911538;29;20464;-96
2021/12/04 07:57:15;;;;;;;77.90;16.97;;;;;;;;;;4913692;29;20539;-96
2021/12/04 07:59:42;;;;;;;81.30;17.43;;;;;;;;;;4915599;29;20690;-96
2021/12/04 08:02:08;;;;;;;78.73;16.90;;;;;;;;;;4917700;29;20452;-96
2021/12/04 08:04:35;;;;;;;78.17;15.87;;;;;;;;;;4915597;29;21241;-96
2021/12/04 08:07:03;;;;;;;77.90;15.20;;;;;;;;;;4918528;29;20446;-96
2021/12/04 08:09:32;;;;;;;82.57;17.07;;;;;;;;;;4962273;23;20520;-96
2021/12/04 08:11:59;;;;;;;88.63;21.00;;;;;;;;;;4916000;29;20453;-96
2021/12/04 08:14:51;;;;;;;75.53;15.47;;;;;;;;;;4921981;29;20473;-96
2021/12/04 08:17:20;;;;;;;73.10;14.97;;;;;;;;;;4918703;29;20438;-96
2021/12/04 08:19:46;;;;;;;78.10;15.87;;;;;;;;;;4917099;29;20453;-96
2021/12/04 08:22:13;;;;;;;72.67;16.00;;;;;;;;;;4914960;29;20460;-96
2021/12/04 08:24:42;;;;;;;76.07;15.43;;;;;;;;;;4916711;29;21165;-96
2021/12/04 08:27:10;;;;;;;78.33;16.47;;;;;;;;;;4912839;29;20518;-96
2021/12/04 08:29:36;;;;;;;75.90;15.70;;;;;;;;;;4917922;29;20472;-96
2021/12/04 08:32:03;;;;;;;77.83;17.00;;;;;;;;;;4915027;29;20455;-96
2021/12/04 08:34:30;;;;;;;77.93;16.60;;;;;;;;;;4913898;29;21088;-96
2021/12/04 08:36:56;;;;;;;75.90;16.37;;;;;;;;;;4913234;29;20444;-96
2021/12/04 08:39:23;;;;;;;74.67;16.60;;;;;;;;;;4915063;29;20465;-96
2021/12/04 08:41:53;;;;;;;75.93;15.53;;;;;;;;;;4916777;29;20453;-96
2021/12/04 08:44:19;;;;;;;75.40;15.97;;;;;;;;;;4913182;29;20539;-96
2021/12/04 08:46:46;;;;;;;79.10;15.90;;;;;;;;;;4913679;29;20453;-96
2021/12/04 08:49:13;;;;;;;82.00;17.27;;;;;;;;;;4913968;29;20471;-96
2021/12/04 08:51:41;;;;;;;76.67;17.13;;;;;;;;;;4914358;29;20457;-96
2021/12/04 08:54:08;;;;;;;78.73;16.67;;;;;;;;;;4913349;29;21275;-96
2021/12/04 08:56:35;;;;;;;73.67;15.60;;;;;;;;;;4914980;29;20521;-96
2021/12/04 08:59:04;;;;;;;74.83;15.70;;;;;;;;;;4915931;29;20462;-96
2021/12/04 09:01:32;;;;;;;71.97;15.00;;;;;;;;;;4918000;29;21133;-96
2021/12/04 09:04:02;;;;;;;76.60;16.60;;;;;;;;;;4913988;29;21095;-96
2021/12/04 09:06:29;;;;;;;77.50;16.60;;;;;;;;;;4915713;29;20493;-96
2021/12/04 09:08:56;;;;;;;75.33;16.23;;;;;;;;;;4916312;29;20483;-96
2021/12/04 09:11:24;;;;;;;77.13;16.97;;;;;;;;;;4915834;29;20490;-96
2021/12/04 09:13:51;;;;;;;77.07;16.73;;;;;;;;;;4916940;29;20804;-96
2021/12/04 09:16:19;;;;;;;77.47;16.83;;;;;;;;;;4916989;29;20513;-96
2021/12/04 09:18:46;;;;;;;78.47;17.90;;;;;;;;;;4916921;29;20450;-95
2021/12/04 09:21:13;;;;;;;76.17;17.00;;;;;;;;;;4918069;29;20462;-96
2021/12/04 09:23:42;;;;;;;74.80;16.80;;;;;;;;;;4921898;29;20465;-96
2021/12/04 09:26:26;;;;;;;75.20;16.97;;;;;;;;;;4926046;29;20496;-96
2021/12/04 09:28:58;;;;;;;76.73;17.13;;;;;;;;;;4921004;29;20473;-95
2021/12/04 09:40:29;;;;;;;74.87;16.80;;;;;;;;;;4901514;29;20550;-95
2021/12/04 09:59:54;;;;;;;79.07;17.80;;;;;;;;;;4914486;29;20433;-94
2021/12/04 10:02:31;;;;;;;76.80;17.60;;;;;;;;;;4915476;29;20449;-94
2021/12/04 10:19:00;;;;;;;80.90;17.80;;;;;;;;;;4915757;29;20512;-95
2021/12/04 10:35:15;;;;;;;83.37;20.30;;;;;;;;;;4915201;29;20452;-96
2021/12/04 10:37:57;;;;;;;86.80;21.23;;;;;;;;;;4925922;29;20519;-96
2021/12/04 10:40:25;;;;;;;87.10;24.10;;;;;;;;;;4913880;29;20452;-95
2021/12/04 10:42:55;;;;;;;93.20;24.73;;;;;;;;;;4912505;29;20450;-96
2021/12/04 10:45:31;;;;;;;91.77;26.03;;;;;;;;;;4911356;29;20498;-96
2021/12/04 10:47:59;;;;;;;95.07;26.20;;;;;;;;;;4915315;29;20491;-93
2021/12/04 10:50:32;;;;;;;91.47;26.67;;;;;;;;;;4914622;29;20500;-96
2021/12/04 10:53:03;;;;;;;96.33;29.70;;;;;;;;;;4914010;29;20481;-96
2021/12/04 10:55:33;;;;;;;93.57;28.17;;;;;;;;;;4914443;29;20466;-96
2021/12/04 11:00:52;;;;;;;90.90;26.47;;;;;;;;;;4915495;29;20444;-95
2021/12/04 11:03:34;;;;;;;91.70;25.23;;;;;;;;;;4912748;29;20534;-96
2021/12/04 11:22:48;;;;;;;89.23;22.90;;;;;;;;;;4915189;29;20443;-94
2021/12/04 11:36:37;;;;;;;88.63;22.80;;;;;;;;;;4904591;29;20456;-93
2021/12/04 11:42:04;;;;;;;88.77;22.43;;;;;;;;;;4907244;29;20447;-94
2021/12/04 11:44:44;;;;;;;89.60;21.30;;;;;;;;;;4912369;29;21267;-94
2021/12/04 11:47:11;;;;;;;83.67;21.70;;;;;;;;;;4912385;29;20516;-93
2021/12/04 11:49:37;;;;;;;82.80;20.40;;;;;;;;;;4912102;29;20472;-94
2021/12/04 11:52:07;;;;;;;85.30;20.50;;;;;;;;;;4912918;29;20493;-96
2021/12/04 11:54:43;;;;;;;79.27;20.23;;;;;;;;;;4912643;29;20994;-93
2021/12/04 11:57:13;;;;;;;81.67;19.73;;;;;;;;;;4912690;29;20484;-95
2021/12/04 11:59:42;;;;;;;89.77;18.80;;;;;;;;;;4914547;29;20451;-94
2021/12/04 12:02:10;;;;;;;85.23;20.20;;;;;;;;;;4929611;23;20486;-96
2021/12/04 12:04:38;;;;;;;83.50;20.17;;;;;;;;;;4935340;29;20454;-93
2021/12/04 12:07:16;;;;;;;79.50;19.50;;;;;;;;;;4931101;29;21143;-95
2021/12/04 12:09:43;;;;;;;79.60;18.80;;;;;;;;;;4932526;29;20447;-96
2021/12/04 12:12:14;;;;;;;77.50;17.70;;;;;;;;;;4934555;29;20508;-95
2021/12/04 12:14:45;;;;;;;79.73;18.20;;;;;;;;;;4932089;29;20483;-94
2021/12/04 12:17:12;;;;;;;80.07;17.63;;;;;;;;;;4931889;29;20466;-96
2021/12/04 12:19:40;;;;;;;78.83;19.07;;;;;;;;;;4932712;29;21300;-94
2021/12/04 12:22:13;;;;;;;77.30;18.17;;;;;;;;;;4931696;29;20462;-95
2021/12/04 12:27:36;;;;;;;79.27;16.70;;;;;;;;;;4932900;29;20459;-95
2021/12/04 12:32:58;;;;;;;77.00;15.47;;;;;;;;;;4930673;29;20457;-95
2021/12/04 12:38:10;;;;;;;75.27;15.77;;;;;;;;;;4931586;29;20517;-95
2021/12/04 12:40:37;;;;;;;76.20;14.40;;;;;;;;;;4934724;29;20460;-92
2021/12/04 12:43:13;;;;;;;75.03;17.07;;;;;;;;;;4935135;29;20963;-91
2021/12/04 12:45:39;;;;;;;76.10;16.10;;;;;;;;;;4935336;29;20495;-92
2021/12/04 12:48:07;;;;;;;77.20;16.00;;;;;;;;;;4933835;29;20459;-92
2021/12/04 12:50:37;;;;;;;76.80;17.40;;;;;;;;;;4935334;29;20544;-92
2021/12/04 12:53:04;;;;;;;80.33;17.37;;;;;;;;;;4933845;29;21015;-92
2021/12/04 12:55:34;;;;;;;77.30;17.83;;;;;;;;;;4934262;29;20448;-91
2021/12/04 12:58:14;;;;;;;79.83;18.33;;;;;;;;;;4932527;29;20468;-93
2021/12/04 13:11:52;;;;;;;78.87;18.57;;;;;;;;;;4930063;29;20857;-92
2021/12/04 13:14:22;;;;;;;79.20;18.97;;;;;;;;;;4930216;29;20454;-92
2021/12/04 13:16:49;;;;;;;80.27;19.07;;;;;;;;;;4931478;29;20452;-92
2021/12/04 13:19:18;;;;;;;77.20;19.20;;;;;;;;;;4930020;29;20463;-92
2021/12/04 13:21:47;;;;;;;84.90;19.73;;;;;;;;;;4933337;29;20449;-93
2021/12/04 13:24:13;;;;;;;79.67;17.93;;;;;;;;;;4933911;29;20455;-92
2021/12/04 13:26:41;;;;;;;81.13;19.03;;;;;;;;;;4933628;29;20889;-92
2021/12/04 13:29:08;;;;;;;85.53;18.70;;;;;;;;;;4934828;29;20493;-92
2021/12/04 13:31:38;;;;;;;86.00;19.10;;;;;;;;;;4934137;29;20448;-92
2021/12/04 13:34:05;;;;;;;79.47;19.23;;;;;;;;;;4934537;29;20475;-92
2021/12/04 13:36:32;;;;;;;79.93;18.70;;;;;;;;;;4934088;29;20523;-93
2021/12/04 13:38:59;;;;;;;81.47;19.23;;;;;;;;;;4933256;29;20447;-92
2021/12/04 13:41:27;;;;;;;81.90;19.37;;;;;;;;;;4934449;29;20519;-92
2021/12/04 13:43:55;;;;;;;79.47;18.40;;;;;;;;;;4933763;29;20808;-94
2021/12/04 13:46:23;;;;;;;88.70;19.30;;;;;;;;;;4933817;29;20582;-93
2021/12/04 13:48:51;;;;;;;90.47;20.20;;;;;;;;;;4932606;29;20452;-93
2021/12/04 13:51:18;;;;;;;85.57;19.70;;;;;;;;;;4926798;29;20447;-93
2021/12/04 13:53:45;;;;;;;85.30;20.53;;;;;;;;;;4928612;29;20867;-93
2021/12/04 13:56:13;;;;;;;84.77;22.77;;;;;;;;;;4930966;29;20463;-93
2021/12/04 13:58:47;;;;;;;81.70;21.23;;;;;;;;;;4930071;29;20471;-93
2021/12/04 14:01:13;;;;;;;85.63;20.53;;;;;;;;;;4930590;29;20472;-92
2021/12/04 14:03:40;;;;;;;83.10;21.87;;;;;;;;;;4929986;29;20482;-93
2021/12/04 14:06:11;;;;;;;83.83;21.30;;;;;;;;;;4933513;29;21081;-92
2021/12/04 14:08:38;;;;;;;85.20;21.97;;;;;;;;;;4934080;29;20452;-93
2021/12/04 14:11:04;;;;;;;87.70;23.33;;;;;;;;;;4934544;29;20445;-92
2021/12/04 14:13:31;;;;;;;85.77;22.10;;;;;;;;;;4934464;29;20440;-92
2021/12/04 14:15:58;;;;;;;87.23;21.50;;;;;;;;;;4933360;29;20447;-93
2021/12/04 14:18:26;;;;;;;82.87;21.53;;;;;;;;;;4934218;29;20519;-92
2021/12/04 14:20:54;;;;;;;84.80;20.97;;;;;;;;;;4934376;29;20488;-93
2021/12/04 14:23:23;;;;;;;81.90;20.90;;;;;;;;;;4931138;29;20458;-93
2021/12/04 14:25:54;;;;;;;81.87;20.17;;;;;;;;;;4931755;29;20488;-92
2021/12/04 14:28:21;;;;;;;83.63;20.97;;;;;;;;;;4933441;29;20463;-92
2021/12/04 14:30:49;;;;;;;84.93;20.30;;;;;;;;;;4933769;29;20486;-93
2021/12/04 14:33:18;;;;;;;85.50;19.50;;;;;;;;;;4930475;29;20455;-93
2021/12/04 14:35:46;;;;;;;81.67;19.33;;;;;;;;;;4927276;29;20449;-93
2021/12/04 14:38:13;;;;;;;85.70;20.70;;;;;;;;;;4928159;29;20454;-93
2021/12/04 14:40:42;;;;;;;82.77;20.73;;;;;;;;;;4931162;29;21192;-93
2021/12/04 14:43:10;;;;;;;85.60;21.60;;;;;;;;;;4933811;29;20456;-93
2021/12/04 14:45:38;;;;;;;83.97;21.60;;;;;;;;;;4932829;29;21100;-93
2021/12/04 14:48:05;;;;;;;86.37;22.20;;;;;;;;;;4931752;29;21049;-93
2021/12/04 14:50:33;;;;;;;91.00;22.47;;;;;;;;;;4931826;29;20453;-92
2021/12/04 14:53:01;;;;;;;90.07;24.10;;;;;;;;;;4930233;29;20446;-93
2021/12/04 14:55:29;;;;;;;93.50;23.90;;;;;;;;;;4930689;29;21133;-92
2021/12/04 14:57:57;;;;;;;89.63;23.93;;;;;;;;;;4932946;29;20970;-93
2021/12/04 15:00:25;;;;;;;85.70;24.40;;;;;;;;;;4931586;29;20466;-93
2021/12/04 15:02:53;;;;;;;89.50;25.13;;;;;;;;;;4930338;29;20539;-92
2021/12/04 15:05:27;;;;;;;85.80;23.50;;;;;;;;;;4928135;29;20451;-93
2021/12/04 15:07:59;;;;;;;89.50;24.60;;;;;;;;;;4930676;29;20519;-93
2021/12/04 15:10:26;;;;;;;85.93;22.80;;;;;;;;;;4926091;29;20498;-92
2021/12/04 15:12:56;;;;;;;86.20;23.23;;;;;;;;;;4929004;29;20447;-92
2021/12/04 15:15:23;;;;;;;84.47;22.63;;;;;;;;;;4930550;29;20440;-94
2021/12/04 15:17:54;;;;;;;91.60;23.87;;;;;;;;;;4933543;29;20470;-94
2021/12/04 15:20:28;;;;;;;88.47;24.30;;;;;;;;;;4935879;29;20451;-96
2021/12/04 15:22:57;;;;;;;91.10;24.50;;;;;;;;;;4942633;29;20440;-96
2021/12/04 15:25:29;;;;;;;94.00;25.00;;;;;;;;;;4932767;29;20457;-94
2021/12/04 15:27:56;;;;;;;94.00;26.13;;;;;;;;;;4932402;29;20493;-93
2021/12/04 15:36:39;;;;;;;95.07;27.97;;;;;;;;;;6016167;23;21503;-96
2021/12/04 15:39:29;;;;;;;109.33;33.10;;;;;;;;;;4902631;23;20505;-93
2021/12/04 15:42:10;;;;;;;105.27;33.33;;;;;;;;;;4913361;29;20447;-93
2021/12/04 15:44:46;;;;;;;105.60;31.30;;;;;;;;;;4912815;29;20454;-96
2021/12/04 15:47:19;;;;;;;99.30;28.57;;;;;;;;;;4913794;29;20496;-95
2021/12/04 15:53:07;;;;;;;98.80;28.97;;;;;;;;;;5140366;27;1393510;-95
2021/12/04 15:55:36;;;;;;;103.90;28.27;;;;;;;;;;5170361;27;20195;-94
2021/12/04 15:58:05;;;;;;;93.70;26.77;;;;;;;;;;5168847;27;20441;-93
2021/12/04 16:00:32;;;;;;;93.27;27.93;;;;;;;;;;5168018;27;20446;-93
2021/12/04 16:02:59;;;;;;;102.67;27.97;;;;;;;;;;5166806;27;20461;-94
2021/12/04 16:05:27;;;;;;;96.50;26.47;;;;;;;;;;5168151;27;20454;-96
2021/12/04 16:11:04;;;;;;;94.57;25.97;;;;;;;;;;5167901;27;20478;-96
2021/12/04 16:16:11;;;;;;;88.83;23.70;;;;;;;;;;5274927;22;20488;-96
2021/12/04 16:18:49;;;;;;;89.47;25.70;;;;;;;;;;5080698;28;20449;-96
2021/12/04 16:29:57;;;;;;;91.17;24.40;;;;;;;;;;5086709;28;20490;-96
2021/12/04 16:32:36;;;;;;;88.40;23.97;;;;;;;;;;5077228;28;20617;-95
2021/12/04 16:35:27;;;;;;;91.20;25.73;;;;;;;;;;5079308;28;20528;-96
2021/12/04 16:37:55;;;;;;;95.57;26.87;;;;;;;;;;5081044;28;20472;-96
2021/12/04 16:40:24;;;;;;;107.23;27.30;;;;;;;;;;5084898;28;20483;-96
2021/12/04 16:43:01;;;;;;;105.47;30.90;;;;;;;;;;5705141;22;20503;-96
2021/12/04 16:45:30;;;;;;;115.60;34.37;;;;;;;;;;5100049;28;20539;-96
2021/12/04 16:48:00;;;;;;;124.87;34.80;;;;;;;;;;5096087;28;20494;-95
2021/12/04 16:50:30;;;;;;;105.50;31.83;;;;;;;;;;5093622;28;20475;-96
2021/12/04 16:56:20;;;;;;;115.57;34.73;;;;;;;;;;5108811;28;20487;-96
2021/12/04 16:58:48;;;;;;;107.87;33.77;;;;;;;;;;5099084;28;20500;-96
2021/12/04 17:01:16;;;;;;;108.77;33.93;;;;;;;;;;5094533;28;20460;-94
2021/12/04 17:03:42;;;;;;;120.20;40.47;;;;;;;;;;5083975;28;20441;-94
2021/12/04 17:06:09;;;;;;;118.57;38.23;;;;;;;;;;5081374;28;20468;-94
2021/12/04 17:08:36;;;;;;;105.87;32.90;;;;;;;;;;5079400;28;20491;-95
2021/12/04 17:11:06;;;;;;;111.97;33.27;;;;;;;;;;5083352;28;20509;-96
2021/12/04 17:13:33;;;;;;;109.20;32.70;;;;;;;;;;5075789;28;20455;-96
2021/12/04 17:15:59;;;;;;;109.03;32.67;;;;;;;;;;5082018;28;20472;-96
2021/12/04 17:18:27;;;;;;;109.60;31.60;;;;;;;;;;5080711;28;20452;-95
2021/12/04 17:20:55;;;;;;;108.47;32.33;;;;;;;;;;5081086;28;20437;-94
2021/12/04 17:23:22;;;;;;;106.83;32.00;;;;;;;;;;5079456;28;20449;-95
2021/12/04 17:25:49;;;;;;;104.73;30.10;;;;;;;;;;5075545;28;20452;-95
2021/12/04 17:28:16;;;;;;;107.57;31.27;;;;;;;;;;5080619;28;20449;-95
2021/12/04 17:30:45;;;;;;;103.90;30.10;;;;;;;;;;5080912;28;20448;-96
2021/12/04 17:33:12;;;;;;;102.47;30.23;;;;;;;;;;5079278;28;20653;-96
2021/12/04 17:35:40;;;;;;;98.50;27.80;;;;;;;;;;5078880;28;20471;-96
2021/12/04 17:38:07;;;;;;;105.97;29.73;;;;;;;;;;5079152;28;20448;-96
2021/12/04 17:40:34;;;;;;;103.50;29.13;;;;;;;;;;5080996;28;20440;-96
2021/12/04 17:43:01;;;;;;;100.67;27.80;;;;;;;;;;5080994;28;20493;-96
2021/12/04 17:45:30;;;;;;;97.60;26.17;;;;;;;;;;5082632;28;20456;-96
2021/12/04 17:47:59;;;;;;;96.83;26.23;;;;;;;;;;5112221;22;20485;-96
2021/12/04 17:50:27;;;;;;;98.73;26.93;;;;;;;;;;5053902;28;20467;-96
2021/12/04 17:52:56;;;;;;;104.90;31.30;;;;;;;;;;5050916;28;20483;-96
2021/12/04 17:55:23;;;;;;;102.00;26.77;;;;;;;;;;5048941;28;20446;-96
2021/12/04 17:57:50;;;;;;;106.80;28.40;;;;;;;;;;5047491;28;20481;-95
2021/12/04 18:00:18;;;;;;;90.27;23.03;;;;;;;;;;5049575;28;20519;-96
2021/12/04 18:27:07;;;;;;;110.68;29.63;;;;;;;;;;5237494;22;20525;-96
2021/12/04 18:29:35;;;;;;;113.67;32.37;;;;;;;;;;5100093;28;20836;-94
2021/12/04 18:32:03;;;;;;;101.47;32.10;;;;;;;;;;5099446;28;20536;-96
2021/12/04 18:34:29;;;;;;;106.50;32.93;;;;;;;;;;5097684;28;20452;-96
2021/12/04 18:36:56;;;;;;;112.93;36.33;;;;;;;;;;5099648;28;20754;-95
2021/12/04 18:39:24;;;;;;;105.00;32.63;;;;;;;;;;5099879;28;20494;-95
2021/12/04 18:41:54;;;;;;;104.63;28.50;;;;;;;;;;5098005;28;20452;-95
2021/12/04 18:44:20;;;;;;;106.90;31.70;;;;;;;;;;5099993;28;20441;-96
2021/12/04 18:46:49;;;;;;;105.40;30.10;;;;;;;;;;5099810;28;20858;-95
2021/12/04 18:49:16;;;;;;;102.83;29.40;;;;;;;;;;5099563;28;21178;-94
2021/12/04 18:51:43;;;;;;;92.20;25.87;;;;;;;;;;5099224;28;20521;-95
2021/12/04 18:54:10;;;;;;;97.17;26.70;;;;;;;;;;5097143;28;20440;-96
2021/12/04 18:56:36;;;;;;;95.75;26.10;;;;;;;;;;5097108;28;20452;-95
2021/12/04 19:02:35;;;;;;;95.03;25.13;;;;;;;;;;5113083;28;20508;-96
2021/12/04 19:05:03;;;;;;;91.97;24.40;;;;;;;;;;5108112;28;20443;-96
2021/12/04 19:07:29;;;;;;;91.80;23.17;;;;;;;;;;5098759;28;20202;-96
2021/12/04 19:09:56;;;;;;;96.90;26.87;;;;;;;;;;5098793;28;20443;-94
2021/12/04 19:12:23;;;;;;;100.70;25.50;;;;;;;;;;5098919;28;20580;-96
2021/12/04 19:14:50;;;;;;;98.57;27.17;;;;;;;;;;5100083;28;20534;-95
2021/12/04 19:17:16;;;;;;;100.43;26.40;;;;;;;;;;5098362;28;20452;-95
2021/12/04 19:19:43;;;;;;;95.47;25.87;;;;;;;;;;5097439;28;20499;-96
2021/12/04 19:22:11;;;;;;;93.60;26.10;;;;;;;;;;5096548;28;20464;-94
2021/12/04 19:24:38;;;;;;;96.17;26.93;;;;;;;;;;5097568;28;21054;-95
2021/12/04 19:27:05;;;;;;;103.38;26.13;;;;;;;;;;5098980;28;20480;-95
2021/12/04 19:29:31;;;;;;;102.63;26.90;;;;;;;;;;5098758;28;20253;-96